ADDS METAR Data INFO
IDs: Format: Raw Decoded Include TAF

Data at: 1936 UTC 18 Feb 2018

KEIR 181915Z AUTO 17009KT 10SM CLR 24/21 A3016 RMK A01
KEIR 181855Z AUTO 16009KT 10SM CLR 24/21 A3017 RMK A01
KEIR 181835Z AUTO 16008KT 10SM CLR 24/21 A3018 RMK A01
KEIR 181815Z AUTO 16009KT 10SM CLR 24/21 A3019 RMK A01
KEIR 181755Z AUTO 16008KT 10SM CLR 24/21 A3019 RMK A01
KEIR 181735Z AUTO 16009KT 10SM CLR 23/21 A3020 RMK A01
KEIR 181715Z AUTO 16008KT 10SM CLR 24/21 A3021 RMK A01
KEIR 181655Z AUTO 17007KT 10SM CLR 23/21 A3021 RMK A01
KEIR 181635Z AUTO 17007KT 10SM CLR 23/21 A3021 RMK A01
KEIR 181615Z AUTO 16008KT 10SM CLR 23/21 A3021 RMK A01
KEIR 181555Z AUTO 16009KT 10SM CLR 23/21 A3021 RMK A01
KEIR 181535Z AUTO 16008KT 10SM CLR 23/21 A3021 RMK A01
KEIR 181515Z AUTO 16007KT 10SM CLR 22/21 A3021 RMK A01
KEIR 181455Z AUTO 16007KT 10SM CLR 22/21 A3020 RMK A01
KEIR 181435Z AUTO 17005KT 10SM CLR 22/21 A3020 RMK A01
KEIR 181415Z AUTO 17005KT 9SM CLR 22/21 A3020 RMK A01
KEIR 181355Z AUTO 17005KT 9SM CLR 21/21 A3019 RMK A01
KEIR 181335Z AUTO 17006KT 9SM CLR 21/21 A3018 RMK A01
KEIR 181315Z AUTO 17006KT 8SM CLR 21/21 A3018 RMK A01
KEIR 181255Z AUTO 17006KT 8SM CLR 21/21 A3018 RMK A01
KEIR 181235Z AUTO 16006KT 8SM CLR 21/21 A3017 RMK A01
KEIR 181215Z AUTO 17006KT 9SM FEW021 21/21 A3016 RMK A01
KEIR 181155Z AUTO 17007KT 8SM BKN021 21/21 A3016 RMK A01
KEIR 181135Z AUTO 16008KT 7SM OVC020 21/21 A3015 RMK A01
KEIR 181115Z AUTO 15006KT 6SM BR SCT019 21/21 A3015 RMK A01
KEIR 181055Z AUTO 15006KT 6SM BR CLR 21/21 A3015 RMK A01
KEIR 181035Z AUTO 15005KT 7SM CLR 21/21 A3015 RMK A01
KEIR 181015Z AUTO 16005KT 8SM CLR 21/21 A3014 RMK A01
KEIR 180955Z AUTO 16003KT 8SM CLR 21/21 A3014 RMK A01
KEIR 180935Z AUTO 16003KT 7SM CLR 21/21 A3014 RMK A01
KEIR 180915Z AUTO 00000KT 9SM CLR 21/21 A3014 RMK A01
KEIR 180855Z AUTO 25003KT 9SM CLR 21/21 A3014 RMK A01
KEIR 180835Z AUTO 23004KT 10SM CLR 21/21 A3014 RMK A01
KEIR 180815Z AUTO 23005KT 9SM CLR 21/21 A3014 RMK A01
KEIR 180755Z AUTO 22006KT 9SM CLR 21/21 A3014 RMK A01
KEIR 180735Z AUTO 21008KT 9SM CLR 21/21 A3014 RMK A01
KEIR 180715Z AUTO 20006KT 9SM CLR 21/21 A3014 RMK A01
KEIR 180655Z AUTO 19007KT 9SM CLR 21/21 A3015 RMK A01
KEIR 180635Z AUTO 19006KT 9SM CLR 21/21 A3015 RMK A01
KEIR 180615Z AUTO 20004KT 9SM CLR 21/21 A3015 RMK A01
KEIR 180555Z AUTO 00000KT 9SM CLR 21/21 A3015 RMK A01
KEIR 180535Z AUTO 00000KT 8SM CLR 21/21 A3016 RMK A01
KEIR 180515Z AUTO 16004KT 8SM CLR 21/21 A3016 RMK A01
KEIR 180455Z AUTO 16004KT 9SM CLR 21/21 A3017 RMK A01
KEIR 180435Z AUTO 15006KT 8SM CLR 21/21 A3017 RMK A01
KEIR 180415Z AUTO 15004KT 8SM CLR 21/21 A3017 RMK A01
KEIR 180355Z AUTO 00000KT 9SM CLR 22/21 A3017 RMK A01
KEIR 180335Z AUTO 00000KT 10SM CLR 22/21 A3017 RMK A01
KEIR 180315Z AUTO 23004KT 10SM CLR 22/21 A3017 RMK A01
KEIR 180255Z AUTO 00000KT 9SM CLR 22/21 A3017 RMK A01
KEIR 180235Z AUTO 22005KT 10SM CLR 22/21 A3017 RMK A01
KEIR 180215Z AUTO 24005KT 10SM CLR 22/21 A3017 RMK A01
KEIR 180155Z AUTO 24005KT 9SM CLR 22/21 A3017 RMK A01
KEIR 180135Z AUTO 26004KT 10SM FEW002 22/21 A3017 RMK A01
KEIR 180115Z AUTO 00000KT 10SM CLR 22/21 A3017 RMK A01
KEIR 180055Z AUTO 00000KT 10SM CLR 22/21 A3017 RMK A01
KEIR 180035Z AUTO 26006KT 9SM CLR 22/21 A3016 RMK A01
KEIR 180015Z AUTO 03007KT 9SM CLR 22/21 A3016 RMK A01
KEIR 172355Z AUTO 24008KT 10SM CLR 22/21 A3016 RMK A01
KEIR 172335Z AUTO 25008KT 10SM CLR 22/21 A3015 RMK A01
KEIR 172315Z AUTO 24009KT 10SM CLR 23/21 A3015 RMK A01
KEIR 172255Z AUTO 24010KT 10SM CLR 23/21 A3014 RMK A01
KEIR 172235Z AUTO 25010KT 10SM CLR 23/21 A3014 RMK A01
KEIR 172215Z AUTO 25011KT 9SM CLR 23/21 A3014 RMK A01
KEIR 172155Z AUTO 25012KT 10SM CLR 23/21 A3014 RMK A01
KEIR 172135Z AUTO 25013KT 10SM CLR 23/20 A3014 RMK A01
KEIR 172115Z AUTO 25012KT 10SM CLR 23/21 A3014 RMK A01
KEIR 172055Z AUTO 25011KT 10SM CLR 23/21 A3014 RMK A01
KEIR 172035Z AUTO 24009KT 10SM CLR 23/21 A3014 RMK A01
KEIR 172015Z AUTO 24009KT 10SM CLR 23/21 A3015 RMK A01
KEIR 171955Z AUTO 24008KT 10SM CLR 23/21 A3015 RMK A01
KEIR 171935Z AUTO 25006KT 9SM CLR 23/21 A3015 RMK A01
KEIR 171915Z AUTO 25007KT 9SM CLR 23/21 A3016 RMK A01
KEIR 171855Z AUTO 24007KT 10SM CLR 23/21 A3016 RMK A01
KEIR 171835Z AUTO 24008KT 9SM CLR 23/21 A3016 RMK A01
KEIR 171815Z AUTO 24008KT 10SM CLR 23/21 A3017 RMK A01
KEIR 171755Z AUTO 24008KT 10SM CLR 23/21 A3017 RMK A01
KEIR 171735Z AUTO 24009KT 9SM CLR 23/21 A3018 RMK A01
KEIR 171715Z AUTO 24010KT 9SM CLR 23/21 A3018 RMK A01
KEIR 171655Z AUTO 24010KT 10SM CLR 23/21 A3018 RMK A01
KEIR 171635Z AUTO 25009KT 9SM CLR 23/21 A3019 RMK A01
KEIR 171615Z AUTO 24011KT 10SM CLR 23/21 A3018 RMK A01
KEIR 171555Z AUTO 23012KT 9SM CLR 23/21 A3017 RMK A01
KEIR 171535Z AUTO 22012KT 9SM CLR 23/21 A3015 RMK A01
KEIR 171515Z AUTO 22013KT 9SM CLR 22/21 A3014 RMK A01
KEIR 171455Z AUTO 22013KT 9SM CLR 22/21 A3014 RMK A01
KEIR 171435Z AUTO 22013KT 9SM CLR 22/21 A3013 RMK A01
KEIR 171415Z AUTO 22014KT 9SM CLR 22/21 A3013 RMK A01
KEIR 171355Z AUTO 22013KT 10SM CLR 22/20 A3013 RMK A01
KEIR 171335Z AUTO 22012KT 9SM CLR 22/20 A3012 RMK A01
KEIR 171315Z AUTO 22013KT 9SM CLR 22/21 A3011 RMK A01
KEIR 171255Z AUTO 21013KT 8SM CLR 22/21 A3011 RMK A01
KEIR 171235Z AUTO 21013KT 9SM CLR 22/21 A3011 RMK A01
KEIR 171215Z AUTO 21013KT 9SM CLR 22/21 A3011 RMK A01
KEIR 171155Z AUTO 21014KT 9SM CLR 22/20 A3011 RMK A01
KEIR 171135Z AUTO 21011KT 9SM CLR 22/21 A3011 RMK A01
KEIR 171115Z AUTO 22010KT 9SM CLR 22/21 A3011 RMK A01
KEIR 171055Z AUTO 21010KT 9SM CLR 22/21 A3010 RMK A01
KEIR 171035Z AUTO 21009KT 9SM CLR 22/21 A3010 RMK A01
KEIR 171015Z AUTO 22008KT 7SM CLR 21/21 A3010 RMK A01
KEIR 170955Z AUTO 21007KT 5SM BR CLR 21/21 A3010 RMK A01
KEIR 170935Z AUTO 18005KT 3SM BR FEW050 21/21 A3010 RMK A01
KEIR 170915Z AUTO 20005KT 4SM BR FEW055 21/21 A3010 RMK A01
KEIR 170855Z AUTO 19005KT 4SM BR FEW020 BKN050 21/21 A3011 RMK A01
KEIR 170835Z AUTO 19005KT 4SM BR SCT019 SCT033 21/21 A3011 RMK A01
KEIR 170815Z AUTO 20005KT 5SM BR FEW020 SCT032 22/21 A3012 RMK A01
KEIR 170755Z AUTO 20006KT 5SM BR SCT020 BKN036 22/21 A3012 RMK A01